createdAt,value
2022-10-01T00:00:20.943Z,148612.28
2022-10-01T00:05:44.741Z,148582.66
2022-10-01T00:10:49.415Z,148549.22
2022-10-01T00:15:53.328Z,148518.31
2022-10-01T00:20:56.646Z,148515.75
2022-10-01T00:26:11.287Z,148545.38
2022-10-01T00:31:16.788Z,148526.06
2022-10-01T00:36:20.227Z,148519.59
2022-10-01T00:41:25.536Z,148468.09
2022-10-01T00:46:34.938Z,148493.88
2022-10-01T00:51:41.350Z,148459.16
2022-10-01T00:56:47.324Z,148513.19
2022-10-01T01:01:50.976Z,148571.09
2022-10-01T01:06:58.402Z,148598.13
2022-10-01T01:12:12.708Z,148582.66
2022-10-01T01:17:25.159Z,148544.09
2022-10-01T01:22:34.678Z,148587.84
2022-10-01T01:27:43.875Z,148513.19
2022-10-01T01:32:55.313Z,148542.75
2022-10-01T01:38:04.099Z,148551.78
2022-10-01T01:43:12.297Z,148457.88
2022-10-01T01:48:17.012Z,148502.88
2022-10-01T01:53:20.678Z,148455.25
2022-10-01T01:58:26.343Z,148419.25
2022-10-01T02:03:34.408Z,148415.41
2022-10-01T02:08:43.626Z,148398.66
2022-10-01T02:13:56.907Z,148421.81
2022-10-01T02:19:06.169Z,148378.06
2022-10-01T02:24:19.969Z,148358.75
2022-10-01T02:29:24.957Z,148372.94
2022-10-01T02:34:31.483Z,148405.13
2022-10-01T02:39:37.527Z,148354.94
2022-10-01T02:44:45.099Z,148414.06
2022-10-01T02:49:50.842Z,148453.97
2022-10-01T02:54:58.236Z,148475.84
2022-10-01T03:00:04.785Z,148433.38
2022-10-01T03:05:10.439Z,148385.81
2022-10-01T03:10:16.119Z,148372.94
2022-10-01T03:15:20.678Z,148407.66
2022-10-01T03:20:26.618Z,148357.47
2022-10-01T03:25:30.466Z,148376.78
2022-10-01T03:30:35.691Z,148317.66
2022-10-01T03:35:40.411Z,148293.19
2022-10-01T03:40:43.994Z,148259.75
2022-10-01T03:45:47.601Z,148243.06
2022-10-01T03:50:56.039Z,148213.47
2022-10-01T03:56:00.442Z,148172.28
2022-10-01T04:01:04.076Z,148156.88
2022-10-01T04:06:09.096Z,148145.31
2022-10-01T04:11:13.221Z,148142.69
2022-10-01T04:21:42.251Z,148147.88
2022-10-01T04:26:45.678Z,148136.31
2022-10-01T04:31:49.080Z,148185.13
2022-10-01T04:36:53.755Z,148155.59
2022-10-01T04:41:57.040Z,148165.84
2022-10-01T04:47:00.398Z,148127.31
2022-10-01T04:52:06.067Z,148124.75
2022-10-01T04:57:09.436Z,148126.03
2022-10-01T05:02:13.555Z,148138.88
2022-10-01T05:07:19.528Z,148197.97
2022-10-01T05:12:25.528Z,148249.47
2022-10-01T05:17:29.055Z,148290.63
2022-10-01T05:22:34.360Z,148312.47
2022-10-01T05:27:40.531Z,148294.47
2022-10-01T05:32:43.922Z,148321.50
2022-10-01T05:37:48.673Z,148280.31
2022-10-01T05:42:52.044Z,148294.47
2022-10-01T05:47:59.249Z,148358.75
2022-10-01T05:53:16.175Z,148298.34
2022-10-01T05:58:19.601Z,148299.63
2022-10-01T06:03:23.299Z,148257.19
2022-10-01T06:08:28.759Z,148284.16
2022-10-01T06:13:32.198Z,148289.34
2022-10-01T06:18:35.504Z,148333.06
2022-10-01T06:23:40.204Z,148466.84
2022-10-01T06:28:43.579Z,148522.16
2022-10-01T06:33:47.031Z,148477.13
2022-10-01T06:38:52.071Z,148550.50
2022-10-01T06:43:55.509Z,148520.88
2022-10-01T06:48:59.547Z,148518.31
2022-10-01T06:54:04.770Z,148558.22
2022-10-01T06:59:08.491Z,148549.22
2022-10-01T07:04:13.152Z,148592.97
2022-10-01T07:09:18.039Z,148638.00
2022-10-01T07:14:21.786Z,148697.31
2022-10-01T07:19:25.295Z,148696.03
2022-10-01T07:24:30.134Z,148733.34
2022-10-01T07:29:33.583Z,148751.41
2022-10-01T07:34:40.259Z,148850.56
2022-10-01T07:39:44.979Z,148956.25
2022-10-01T07:44:48.516Z,148929.16
2022-10-01T07:49:51.808Z,148954.97
2022-10-01T07:54:56.537Z,149047.72
2022-10-01T08:00:00.547Z,149014.22
2022-10-01T08:05:19.083Z,149019.34
2022-10-01T08:10:24.366Z,149027.09
2022-10-01T08:15:28.870Z,149085.13
2022-10-01T08:20:32.327Z,149135.44
2022-10-01T08:25:37.834Z,149179.28
2022-10-01T08:30:43.050Z,149318.59
2022-10-01T08:35:46.664Z,149224.41
2022-10-01T08:40:52.479Z,149184.47
2022-10-01T08:46:08.598Z,149212.81
2022-10-01T08:51:29.429Z,149251.50
2022-10-01T08:56:40.764Z,149272.16
2022-10-01T09:01:46.792Z,149243.75
2022-10-01T09:07:04.835Z,149286.34
2022-10-01T09:12:29.441Z,149334.09
2022-10-01T09:17:54.333Z,149309.56
2022-10-01T09:23:14.907Z,149414.06
2022-10-01T09:28:22.192Z,149396.00
2022-10-01T09:33:32.142Z,149416.66
2022-10-01T09:38:37.912Z,149372.78
2022-10-01T09:43:44.389Z,149257.97
2022-10-01T09:48:57.714Z,149261.84
2022-10-01T09:54:05.938Z,149282.47
2022-10-01T09:59:18.104Z,149304.41
2022-10-01T10:04:23.877Z,149321.16
2022-10-01T10:09:30.242Z,149300.50
2022-10-01T10:14:37.081Z,149233.44
2022-10-01T10:19:41.528Z,149274.72
2022-10-01T10:24:44.962Z,149288.91
2022-10-01T10:29:49.845Z,149239.91
2022-10-01T10:35:02.079Z,149294.09
2022-10-01T10:40:09.118Z,149252.81
2022-10-01T10:45:21.213Z,149179.28
2022-10-01T10:50:33.414Z,149220.56
2022-10-01T10:55:39.177Z,149287.63
2022-10-01T11:00:50.903Z,149344.38
2022-10-01T11:05:57.323Z,149468.34
2022-10-01T11:11:13.111Z,149669.75
2022-10-01T11:16:36.530Z,149811.91
2022-10-01T11:21:53.087Z,149824.81
2022-10-01T11:27:01.124Z,149855.84
2022-10-01T11:32:19.728Z,149886.84
2022-10-01T11:37:41.632Z,149857.13
2022-10-01T11:42:47.680Z,149726.59
2022-10-01T11:47:57.379Z,149643.91
2022-10-01T11:53:05.787Z,149589.69
2022-10-01T11:58:35.650Z,149589.69
2022-10-01T12:03:46.923Z,149505.75
2022-10-01T12:08:56.934Z,149490.28
2022-10-01T12:14:12.658Z,149499.31
2022-10-01T12:19:25.049Z,149569.00
2022-10-01T12:24:31.969Z,149548.34
2022-10-01T12:29:46.278Z,149509.66
2022-10-01T12:35:04.589Z,149594.88
2022-10-01T12:40:22.812Z,149636.16
2022-10-01T12:45:35.438Z,149589.69
2022-10-01T12:51:08.421Z,149587.09
2022-10-01T12:56:17.961Z,149596.16
2022-10-01T13:01:37.300Z,149571.59
2022-10-01T13:06:55.436Z,149521.25
2022-10-01T13:12:20.633Z,149487.72
2022-10-01T13:17:34.882Z,149513.50
2022-10-01T13:22:48.786Z,149514.78
2022-10-01T13:27:59.618Z,149523.84
2022-10-01T13:33:03.413Z,149479.94
2022-10-01T13:38:17.263Z,149479.94
2022-10-01T13:43:24.391Z,149472.19
2022-10-01T13:48:34.768Z,149514.78
2022-10-01T13:53:50.101Z,149512.22
2022-10-01T13:58:53.535Z,149541.91
2022-10-01T14:04:05.312Z,149558.69
2022-10-01T14:09:16.695Z,149620.69
2022-10-01T14:14:41.377Z,149634.84
2022-10-01T14:19:46.990Z,149576.78
2022-10-01T14:25:20.985Z,149650.38
2022-10-01T14:30:30.686Z,149620.69
2022-10-01T14:35:39.452Z,149610.34
2022-10-01T14:40:46.908Z,149600.00
2022-10-01T14:45:53.104Z,149611.63
2022-10-01T14:50:58.540Z,149563.88
2022-10-01T14:56:08.224Z,149565.16
2022-10-01T15:01:18.987Z,149594.88
2022-10-01T15:06:26.218Z,149594.88
2022-10-01T15:11:32.718Z,149584.53
2022-10-01T15:16:37.176Z,149525.13
2022-10-01T15:21:46.488Z,149523.84
2022-10-01T15:26:52.669Z,149486.41
2022-10-01T15:32:00.191Z,149478.66
2022-10-01T15:37:04.934Z,149432.16
2022-10-01T15:42:20.567Z,149388.28
2022-10-01T15:47:33.080Z,149357.31
2022-10-01T15:52:52.233Z,149353.41
2022-10-01T15:57:59.487Z,149336.66
2022-10-01T16:03:04.035Z,149323.78
2022-10-01T16:08:07.477Z,149294.09
2022-10-01T16:13:39.380Z,149265.69
2022-10-01T16:18:43.621Z,149214.09
2022-10-01T16:23:49.613Z,149208.94
2022-10-01T16:28:57.604Z,149201.19
2022-10-01T16:34:01.173Z,149183.19
2022-10-01T16:39:06.682Z,149185.75
2022-10-01T16:44:14.179Z,149139.34
2022-10-01T16:49:18.415Z,149132.88
2022-10-01T16:54:24.453Z,149138.00
2022-10-01T16:59:29.127Z,149194.78
2022-10-01T17:04:34.055Z,149159.91
2022-10-01T17:09:37.611Z,149172.84
2022-10-01T17:14:42.274Z,149174.13
2022-10-01T17:19:45.568Z,149129.00
2022-10-01T17:24:49.276Z,149174.13
2022-10-01T17:29:54.352Z,149122.56
2022-10-01T17:34:57.670Z,149145.75
2022-10-01T17:40:01.355Z,149086.47
2022-10-01T17:45:09.316Z,149024.53
2022-10-01T17:50:13.243Z,149037.41
2022-10-01T17:55:17.277Z,149045.16
2022-10-01T18:00:22.048Z,149056.75
2022-10-01T18:05:26.722Z,149045.16
2022-10-01T18:10:30.176Z,149052.91
2022-10-01T18:15:34.908Z,149068.34
2022-10-01T18:20:39.547Z,148971.69
2022-10-01T18:25:42.985Z,148841.53
2022-10-01T18:30:48.560Z,148793.91
2022-10-01T18:35:58.628Z,148719.19
2022-10-01T18:41:10.133Z,148623.88
2022-10-01T18:46:28.111Z,148622.59
2022-10-01T18:51:51.070Z,148587.84
2022-10-01T18:57:06.448Z,148563.34
2022-10-01T19:02:32.625Z,148556.94
2022-10-01T19:07:48.580Z,148509.28
2022-10-01T19:13:16.959Z,148537.63
2022-10-01T19:18:38.300Z,148510.56
2022-10-01T19:24:16.360Z,148524.78
2022-10-01T19:29:36.482Z,148513.19
2022-10-01T19:34:45.536Z,148499.00
2022-10-01T19:39:52.873Z,148466.84
2022-10-01T19:45:01.304Z,148473.28
2022-10-01T19:50:19.864Z,148447.56
2022-10-01T19:55:24.879Z,148434.66
2022-10-01T20:00:29.808Z,148428.25
2022-10-01T20:05:45.001Z,148338.19
2022-10-01T20:10:56.511Z,148338.19
2022-10-01T20:16:09.754Z,148322.78
2022-10-01T20:21:31.599Z,148299.63
2022-10-01T20:26:40.719Z,148280.31
2022-10-01T20:31:52.564Z,148312.47
2022-10-01T20:37:09.237Z,148277.78
2022-10-01T20:42:19.188Z,148291.91
2022-10-01T20:47:24.781Z,148286.78
2022-10-01T20:52:40.713Z,148249.47
2022-10-01T20:57:50.325Z,148234.06
2022-10-01T21:03:02.047Z,148246.91
2022-10-01T21:08:17.302Z,148262.31
2022-10-01T21:13:30.474Z,148246.91
2022-10-01T21:18:41.659Z,148281.59
2022-10-01T21:23:59.725Z,148252.03
2022-10-01T21:29:22.164Z,148294.47
2022-10-01T21:34:37.627Z,148285.50
2022-10-01T21:39:54.377Z,148259.75
2022-10-01T21:45:30.594Z,148302.19
2022-10-01T21:50:50.224Z,148317.66
2022-10-01T21:56:13.485Z,148334.34
2022-10-01T22:01:27.433Z,148327.88
2022-10-01T22:06:36.500Z,148344.63
2022-10-01T22:11:48.377Z,148313.75
2022-10-01T22:16:56.714Z,148261.03
2022-10-01T22:22:06.112Z,148282.88
2022-10-01T22:27:17.719Z,148281.59
2022-10-01T22:32:25.470Z,148254.63
2022-10-01T22:37:34.829Z,148295.78
2022-10-01T22:42:48.651Z,148252.03
2022-10-01T22:48:05.185Z,148279.03
2022-10-01T22:53:21.896Z,148272.59
2022-10-01T22:58:37.784Z,148277.78
2022-10-01T23:04:00.618Z,148275.22
2022-10-01T23:09:12.651Z,148288.06
2022-10-01T23:14:36.256Z,148313.75
2022-10-01T23:19:48.861Z,148321.50
2022-10-01T23:25:14.884Z,148312.47
2022-10-01T23:30:21.566Z,148329.22
2022-10-01T23:35:37.435Z,148329.22
2022-10-01T23:40:43.854Z,148329.22
2022-10-01T23:45:55.267Z,148334.34
2022-10-01T23:51:03.338Z,148326.59
2022-10-01T23:56:29.308Z,148353.66
